sensor_id;sensor_type;location;lat;lon;timestamp;temperature;humidity
2112;DHT22;1062;52.538;13.400;2022-07-05T00:00:00;18.70;98.70
2112;DHT22;1062;52.538;13.400;2022-07-05T00:02:25;18.80;98.90
2112;DHT22;1062;52.538;13.400;2022-07-05T00:04:51;18.90;98.60
2112;DHT22;1062;52.538;13.400;2022-07-05T00:07:17;18.80;98.90
2112;DHT22;1062;52.538;13.400;2022-07-05T00:09:47;18.70;99.10
2112;DHT22;1062;52.538;13.400;2022-07-05T00:12:13;18.60;99.20
2112;DHT22;1062;52.538;13.400;2022-07-05T00:14:39;18.70;99.50
2112;DHT22;1062;52.538;13.400;2022-07-05T00:17:05;18.70;99.40
2112;DHT22;1062;52.538;13.400;2022-07-05T00:19:31;18.70;99.40
2112;DHT22;1062;52.538;13.400;2022-07-05T00:21:56;18.60;99.70
2112;DHT22;1062;52.538;13.400;2022-07-05T00:24:23;18.60;99.90
2112;DHT22;1062;52.538;13.400;2022-07-05T00:26:48;18.50;99.90
2112;DHT22;1062;52.538;13.400;2022-07-05T00:29:14;18.50;99.90
2112;DHT22;1062;52.538;13.400;2022-07-05T00:31:40;18.50;99.90
2112;DHT22;1062;52.538;13.400;2022-07-05T00:34:05;18.50;99.90
2112;DHT22;1062;52.538;13.400;2022-07-05T00:36:31;18.50;99.90
2112;DHT22;1062;52.538;13.400;2022-07-05T00:38:56;18.40;99.90
2112;DHT22;1062;52.538;13.400;2022-07-05T00:41:22;18.30;99.90
2112;DHT22;1062;52.538;13.400;2022-07-05T00:43:59;18.30;99.90
2112;DHT22;1062;52.538;13.400;2022-07-05T00:46:26;18.20;99.90
2112;DHT22;1062;52.538;13.400;2022-07-05T00:48:52;18.20;99.90
2112;DHT22;1062;52.538;13.400;2022-07-05T00:51:18;18.20;99.90
2112;DHT22;1062;52.538;13.400;2022-07-05T00:53:45;18.20;99.90
2112;DHT22;1062;52.538;13.400;2022-07-05T00:56:11;18.10;99.90
2112;DHT22;1062;52.538;13.400;2022-07-05T00:58:37;18.10;99.90
2112;DHT22;1062;52.538;13.400;2022-07-05T01:01:05;18.10;99.90
2112;DHT22;1062;52.538;13.400;2022-07-05T01:03:31;18.20;99.90
2112;DHT22;1062;52.538;13.400;2022-07-05T01:05:58;18.10;99.90
2112;DHT22;1062;52.538;13.400;2022-07-05T01:08:24;18.10;99.90
2112;DHT22;1062;52.538;13.400;2022-07-05T01:10:52;18.00;99.90
2112;DHT22;1062;52.538;13.400;2022-07-05T01:13:19;18.00;99.90
2112;DHT22;1062;52.538;13.400;2022-07-05T01:15:44;17.90;99.90
2112;DHT22;1062;52.538;13.400;2022-07-05T01:18:10;17.80;99.90
2112;DHT22;1062;52.538;13.400;2022-07-05T01:20:36;17.70;99.90
2112;DHT22;1062;52.538;13.400;2022-07-05T01:23:02;17.60;99.90
2112;DHT22;1062;52.538;13.400;2022-07-05T01:25:29;17.70;99.90
2112;DHT22;1062;52.538;13.400;2022-07-05T01:27:56;17.70;99.90
2112;DHT22;1062;52.538;13.400;2022-07-05T01:30:23;17.60;99.90
2112;DHT22;1062;52.538;13.400;2022-07-05T01:32:49;17.70;99.90
2112;DHT22;1062;52.538;13.400;2022-07-05T01:35:16;17.50;99.90
2112;DHT22;1062;52.538;13.400;2022-07-05T01:37:49;17.60;99.90
2112;DHT22;1062;52.538;13.400;2022-07-05T01:40:16;17.50;99.90
2112;DHT22;1062;52.538;13.400;2022-07-05T01:42:42;17.50;99.90
2112;DHT22;1062;52.538;13.400;2022-07-05T01:45:08;17.40;99.90
2112;DHT22;1062;52.538;13.400;2022-07-05T01:47:41;17.40;99.90
2112;DHT22;1062;52.538;13.400;2022-07-05T01:50:12;17.40;99.90
2112;DHT22;1062;52.538;13.400;2022-07-05T01:52:39;17.30;99.90
2112;DHT22;1062;52.538;13.400;2022-07-05T01:55:07;17.30;99.90
2112;DHT22;1062;52.538;13.400;2022-07-05T01:57:32;17.20;99.90
2112;DHT22;1062;52.538;13.400;2022-07-05T01:59:58;17.20;99.90
2112;DHT22;1062;52.538;13.400;2022-07-05T02:02:23;17.10;99.90
2112;DHT22;1062;52.538;13.400;2022-07-05T02:04:49;17.10;99.90
2112;DHT22;1062;52.538;13.400;2022-07-05T02:07:14;17.10;99.90
2112;DHT22;1062;52.538;13.400;2022-07-05T02:09:40;17.00;99.90
2112;DHT22;1062;52.538;13.400;2022-07-05T02:12:06;16.90;99.90
2112;DHT22;1062;52.538;13.400;2022-07-05T02:14:31;16.90;99.90
2112;DHT22;1062;52.538;13.400;2022-07-05T02:16:57;16.70;99.90
2112;DHT22;1062;52.538;13.400;2022-07-05T02:19:23;16.70;99.90
2112;DHT22;1062;52.538;13.400;2022-07-05T02:21:49;16.50;99.90
2112;DHT22;1062;52.538;13.400;2022-07-05T02:24:14;16.50;99.90
2112;DHT22;1062;52.538;13.400;2022-07-05T02:26:40;16.40;99.90
2112;DHT22;1062;52.538;13.400;2022-07-05T02:29:05;16.40;99.90
2112;DHT22;1062;52.538;13.400;2022-07-05T02:31:32;16.40;99.90
2112;DHT22;1062;52.538;13.400;2022-07-05T02:33:57;16.50;99.90
2112;DHT22;1062;52.538;13.400;2022-07-05T02:36:23;16.40;99.90
2112;DHT22;1062;52.538;13.400;2022-07-05T02:38:49;16.30;99.90
2112;DHT22;1062;52.538;13.400;2022-07-05T02:41:14;16.30;99.90
2112;DHT22;1062;52.538;13.400;2022-07-05T02:43:40;16.20;99.90
2112;DHT22;1062;52.538;13.400;2022-07-05T02:46:07;16.20;99.90
2112;DHT22;1062;52.538;13.400;2022-07-05T02:48:34;16.20;99.90
2112;DHT22;1062;52.538;13.400;2022-07-05T02:51:01;16.00;99.90
2112;DHT22;1062;52.538;13.400;2022-07-05T02:53:27;16.00;99.90
2112;DHT22;1062;52.538;13.400;2022-07-05T02:55:54;16.00;99.90
2112;DHT22;1062;52.538;13.400;2022-07-05T02:58:19;15.90;99.90
2112;DHT22;1062;52.538;13.400;2022-07-05T03:00:46;15.80;99.90
2112;DHT22;1062;52.538;13.400;2022-07-05T03:03:13;15.70;99.90
2112;DHT22;1062;52.538;13.400;2022-07-05T03:05:39;15.80;99.90
2112;DHT22;1062;52.538;13.400;2022-07-05T03:08:05;15.80;99.90
2112;DHT22;1062;52.538;13.400;2022-07-05T03:10:30;15.60;99.90
2112;DHT22;1062;52.538;13.400;2022-07-05T03:12:56;15.60;99.90
2112;DHT22;1062;52.538;13.400;2022-07-05T03:15:21;15.50;99.90
2112;DHT22;1062;52.538;13.400;2022-07-05T03:17:47;15.60;99.90
2112;DHT22;1062;52.538;13.400;2022-07-05T03:20:12;15.50;99.90
2112;DHT22;1062;52.538;13.400;2022-07-05T03:22:38;15.50;99.90
2112;DHT22;1062;52.538;13.400;2022-07-05T03:25:05;15.50;99.90
2112;DHT22;1062;52.538;13.400;2022-07-05T03:27:30;15.50;99.90
2112;DHT22;1062;52.538;13.400;2022-07-05T03:29:56;15.50;99.90
2112;DHT22;1062;52.538;13.400;2022-07-05T03:32:21;15.40;99.90
2112;DHT22;1062;52.538;13.400;2022-07-05T03:34:47;15.40;99.90
2112;DHT22;1062;52.538;13.400;2022-07-05T03:37:13;15.40;99.90
2112;DHT22;1062;52.538;13.400;2022-07-05T03:39:38;15.40;99.90
2112;DHT22;1062;52.538;13.400;2022-07-05T03:42:04;15.40;99.90
2112;DHT22;1062;52.538;13.400;2022-07-05T03:44:30;15.40;99.90
2112;DHT22;1062;52.538;13.400;2022-07-05T03:46:58;15.50;99.90
2112;DHT22;1062;52.538;13.400;2022-07-05T03:49:24;15.50;99.90
2112;DHT22;1062;52.538;13.400;2022-07-05T03:51:50;15.50;99.90
2112;DHT22;1062;52.538;13.400;2022-07-05T03:54:15;15.50;99.90
2112;DHT22;1062;52.538;13.400;2022-07-05T03:56:41;15.50;99.90
2112;DHT22;1062;52.538;13.400;2022-07-05T03:59:06;15.40;99.90
2112;DHT22;1062;52.538;13.400;2022-07-05T04:01:32;15.50;99.90
2112;DHT22;1062;52.538;13.400;2022-07-05T04:03:57;15.50;99.90
2112;DHT22;1062;52.538;13.400;2022-07-05T04:06:23;15.60;99.90
2112;DHT22;1062;52.538;13.400;2022-07-05T04:08:48;15.60;99.90
2112;DHT22;1062;52.538;13.400;2022-07-05T04:11:14;15.60;99.90
2112;DHT22;1062;52.538;13.400;2022-07-05T04:13:41;15.70;99.90
2112;DHT22;1062;52.538;13.400;2022-07-05T04:16:07;15.70;99.90
2112;DHT22;1062;52.538;13.400;2022-07-05T04:18:32;15.70;99.90
2112;DHT22;1062;52.538;13.400;2022-07-05T04:20:58;15.80;99.90
2112;DHT22;1062;52.538;13.400;2022-07-05T04:23:24;16.40;99.90
2112;DHT22;1062;52.538;13.400;2022-07-05T04:25:49;17.40;99.90
2112;DHT22;1062;52.538;13.400;2022-07-05T04:28:15;18.30;99.90
2112;DHT22;1062;52.538;13.400;2022-07-05T04:30:40;18.50;99.90
2112;DHT22;1062;52.538;13.400;2022-07-05T04:33:06;18.60;99.90
2112;DHT22;1062;52.538;13.400;2022-07-05T04:35:32;19.40;99.90
2112;DHT22;1062;52.538;13.400;2022-07-05T04:37:57;19.90;99.90
2112;DHT22;1062;52.538;13.400;2022-07-05T04:40:23;20.10;99.90
2112;DHT22;1062;52.538;13.400;2022-07-05T04:42:48;20.40;99.90
2112;DHT22;1062;52.538;13.400;2022-07-05T04:45:14;20.80;99.90
2112;DHT22;1062;52.538;13.400;2022-07-05T04:47:39;20.60;99.90
2112;DHT22;1062;52.538;13.400;2022-07-05T04:50:06;20.80;99.90
2112;DHT22;1062;52.538;13.400;2022-07-05T04:52:32;20.30;99.90
2112;DHT22;1062;52.538;13.400;2022-07-05T04:54:57;20.10;99.90
2112;DHT22;1062;52.538;13.400;2022-07-05T04:57:23;20.00;99.90
2112;DHT22;1062;52.538;13.400;2022-07-05T04:59:48;20.00;99.90
2112;DHT22;1062;52.538;13.400;2022-07-05T05:02:14;20.30;99.90
2112;DHT22;1062;52.538;13.400;2022-07-05T05:04:40;20.20;99.90
2112;DHT22;1062;52.538;13.400;2022-07-05T05:07:06;20.40;99.90
2112;DHT22;1062;52.538;13.400;2022-07-05T05:09:31;20.90;99.90
2112;DHT22;1062;52.538;13.400;2022-07-05T05:11:57;20.70;99.90
2112;DHT22;1062;52.538;13.400;2022-07-05T05:14:22;21.30;99.90
2112;DHT22;1062;52.538;13.400;2022-07-05T05:16:48;21.70;99.90
2112;DHT22;1062;52.538;13.400;2022-07-05T05:19:13;21.60;99.90
2112;DHT22;1062;52.538;13.400;2022-07-05T05:21:39;21.70;99.90
2112;DHT22;1062;52.538;13.400;2022-07-05T05:24:05;22.20;99.90
2112;DHT22;1062;52.538;13.400;2022-07-05T05:26:31;22.10;99.90
2112;DHT22;1062;52.538;13.400;2022-07-05T05:28:56;21.80;99.90
2112;DHT22;1062;52.538;13.400;2022-07-05T05:31:22;22.40;99.90
2112;DHT22;1062;52.538;13.400;2022-07-05T05:33:47;22.30;99.90
2112;DHT22;1062;52.538;13.400;2022-07-05T05:36:13;22.40;99.90
2112;DHT22;1062;52.538;13.400;2022-07-05T05:38:39;23.20;99.90
2112;DHT22;1062;52.538;13.400;2022-07-05T05:41:04;23.60;99.90
2112;DHT22;1062;52.538;13.400;2022-07-05T05:43:30;23.10;99.90
2112;DHT22;1062;52.538;13.400;2022-07-05T05:45:56;22.30;99.90
2112;DHT22;1062;52.538;13.400;2022-07-05T05:48:22;23.50;99.90
2112;DHT22;1062;52.538;13.400;2022-07-05T05:50:48;24.10;99.90
2112;DHT22;1062;52.538;13.400;2022-07-05T05:53:14;24.00;99.40
2112;DHT22;1062;52.538;13.400;2022-07-05T05:55:40;23.90;97.80
2112;DHT22;1062;52.538;13.400;2022-07-05T05:58:20;24.00;97.60
2112;DHT22;1062;52.538;13.400;2022-07-05T06:00:47;24.20;96.30
2112;DHT22;1062;52.538;13.400;2022-07-05T06:03:27;23.90;95.90
2112;DHT22;1062;52.538;13.400;2022-07-05T06:05:53;24.30;95.30
2112;DHT22;1062;52.538;13.400;2022-07-05T06:08:19;24.60;94.50
2112;DHT22;1062;52.538;13.400;2022-07-05T06:10:45;25.10;93.90
2112;DHT22;1062;52.538;13.400;2022-07-05T06:13:12;24.20;93.50
2112;DHT22;1062;52.538;13.400;2022-07-05T06:15:38;24.40;93.20
2112;DHT22;1062;52.538;13.400;2022-07-05T06:18:06;25.10;92.90
2112;DHT22;1062;52.538;13.400;2022-07-05T06:20:33;24.60;92.70
2112;DHT22;1062;52.538;13.400;2022-07-05T06:22:59;25.30;92.40
2112;DHT22;1062;52.538;13.400;2022-07-05T06:25:26;25.60;92.30
2112;DHT22;1062;52.538;13.400;2022-07-05T06:28:03;26.30;91.40
2112;DHT22;1062;52.538;13.400;2022-07-05T06:30:30;26.70;90.10
2112;DHT22;1062;52.538;13.400;2022-07-05T06:32:56;25.60;90.00
2112;DHT22;1062;52.538;13.400;2022-07-05T06:35:22;25.30;88.50
2112;DHT22;1062;52.538;13.400;2022-07-05T06:37:59;26.00;88.70
2112;DHT22;1062;52.538;13.400;2022-07-05T06:40:36;25.90;88.10
2112;DHT22;1062;52.538;13.400;2022-07-05T06:43:04;26.20;87.50
2112;DHT22;1062;52.538;13.400;2022-07-05T06:45:30;25.50;88.10
2112;DHT22;1062;52.538;13.400;2022-07-05T06:48:01;25.20;88.60
2112;DHT22;1062;52.538;13.400;2022-07-05T06:50:29;25.20;90.00
2112;DHT22;1062;52.538;13.400;2022-07-05T06:52:55;25.70;90.00
2112;DHT22;1062;52.538;13.400;2022-07-05T06:55:21;26.70;87.00
2112;DHT22;1062;52.538;13.400;2022-07-05T06:57:47;27.50;84.90
2112;DHT22;1062;52.538;13.400;2022-07-05T07:00:13;26.00;84.50
2112;DHT22;1062;52.538;13.400;2022-07-05T07:02:39;25.90;85.80
2112;DHT22;1062;52.538;13.400;2022-07-05T07:05:05;26.50;84.70
2112;DHT22;1062;52.538;13.400;2022-07-05T07:07:31;26.10;85.00
2112;DHT22;1062;52.538;13.400;2022-07-05T07:10:16;26.60;84.20
2112;DHT22;1062;52.538;13.400;2022-07-05T07:12:41;27.80;83.30
2112;DHT22;1062;52.538;13.400;2022-07-05T07:15:07;27.30;81.50
2112;DHT22;1062;52.538;13.400;2022-07-05T07:17:33;28.50;78.40
2112;DHT22;1062;52.538;13.400;2022-07-05T07:19:58;27.70;80.10
2112;DHT22;1062;52.538;13.400;2022-07-05T07:22:24;28.80;78.70
2112;DHT22;1062;52.538;13.400;2022-07-05T07:24:50;28.20;76.50
2112;DHT22;1062;52.538;13.400;2022-07-05T07:27:15;28.90;77.40
2112;DHT22;1062;52.538;13.400;2022-07-05T07:29:41;28.70;74.90
2112;DHT22;1062;52.538;13.400;2022-07-05T07:32:07;27.50;76.00
2112;DHT22;1062;52.538;13.400;2022-07-05T07:34:33;27.50;78.70
2112;DHT22;1062;52.538;13.400;2022-07-05T07:36:59;29.30;74.10
2112;DHT22;1062;52.538;13.400;2022-07-05T07:39:26;29.40;71.80
2112;DHT22;1062;52.538;13.400;2022-07-05T07:41:52;28.60;73.00
2112;DHT22;1062;52.538;13.400;2022-07-05T07:44:18;28.40;73.20
2112;DHT22;1062;52.538;13.400;2022-07-05T07:46:44;28.50;73.00
2112;DHT22;1062;52.538;13.400;2022-07-05T07:49:10;29.70;68.90
2112;DHT22;1062;52.538;13.400;2022-07-05T07:51:39;29.20;71.40
2112;DHT22;1062;52.538;13.400;2022-07-05T07:54:05;30.00;67.30
2112;DHT22;1062;52.538;13.400;2022-07-05T07:56:31;29.50;67.70
2112;DHT22;1062;52.538;13.400;2022-07-05T07:58:57;28.80;67.30
2112;DHT22;1062;52.538;13.400;2022-07-05T08:01:23;29.20;69.00
2112;DHT22;1062;52.538;13.400;2022-07-05T08:03:49;30.30;65.20
2112;DHT22;1062;52.538;13.400;2022-07-05T08:06:15;27.90;67.30
2112;DHT22;1062;52.538;13.400;2022-07-05T08:08:42;30.20;65.40
2112;DHT22;1062;52.538;13.400;2022-07-05T08:11:12;29.10;64.60
2112;DHT22;1062;52.538;13.400;2022-07-05T08:13:38;28.90;69.00
2112;DHT22;1062;52.538;13.400;2022-07-05T08:16:08;27.40;70.20
2112;DHT22;1062;52.538;13.400;2022-07-05T08:18:35;28.00;70.20
2112;DHT22;1062;52.538;13.400;2022-07-05T08:21:19;28.30;69.30
2112;DHT22;1062;52.538;13.400;2022-07-05T08:24:01;28.00;70.30
2112;DHT22;1062;52.538;13.400;2022-07-05T08:26:27;27.60;69.60
2112;DHT22;1062;52.538;13.400;2022-07-05T08:28:53;26.90;73.40
2112;DHT22;1062;52.538;13.400;2022-07-05T08:31:19;26.60;71.00
2112;DHT22;1062;52.538;13.400;2022-07-05T08:33:45;26.80;72.10
2112;DHT22;1062;52.538;13.400;2022-07-05T08:36:10;27.20;73.60
2112;DHT22;1062;52.538;13.400;2022-07-05T08:38:36;27.10;70.50
2112;DHT22;1062;52.538;13.400;2022-07-05T08:41:02;26.50;74.60
2112;DHT22;1062;52.538;13.400;2022-07-05T08:43:28;28.00;71.00
2112;DHT22;1062;52.538;13.400;2022-07-05T08:45:56;27.80;69.70
2112;DHT22;1062;52.538;13.400;2022-07-05T08:48:24;27.60;71.40
2112;DHT22;1062;52.538;13.400;2022-07-05T08:50:51;27.70;71.50
2112;DHT22;1062;52.538;13.400;2022-07-05T08:53:20;26.80;73.20
2112;DHT22;1062;52.538;13.400;2022-07-05T08:55:46;28.30;71.20
2112;DHT22;1062;52.538;13.400;2022-07-05T08:58:12;28.80;67.80
2112;DHT22;1062;52.538;13.400;2022-07-05T09:00:42;27.00;72.90
2112;DHT22;1062;52.538;13.400;2022-07-05T09:03:08;26.90;73.70
2112;DHT22;1062;52.538;13.400;2022-07-05T09:05:44;27.10;73.20
2112;DHT22;1062;52.538;13.400;2022-07-05T09:08:13;27.50;74.00
2112;DHT22;1062;52.538;13.400;2022-07-05T09:10:40;27.40;71.60
2112;DHT22;1062;52.538;13.400;2022-07-05T09:13:07;27.10;74.20
2112;DHT22;1062;52.538;13.400;2022-07-05T09:15:32;28.40;69.60
2112;DHT22;1062;52.538;13.400;2022-07-05T09:17:58;28.00;69.50
2112;DHT22;1062;52.538;13.400;2022-07-05T09:20:26;27.30;71.50
2112;DHT22;1062;52.538;13.400;2022-07-05T09:22:54;28.70;70.00
2112;DHT22;1062;52.538;13.400;2022-07-05T09:28:01;26.50;71.50
2112;DHT22;1062;52.538;13.400;2022-07-05T09:35:31;27.40;71.90
2112;DHT22;1062;52.538;13.400;2022-07-05T09:37:57;27.40;73.60
2112;DHT22;1062;52.538;13.400;2022-07-05T09:40:22;26.90;72.00
2112;DHT22;1062;52.538;13.400;2022-07-05T09:42:48;28.10;71.40
2112;DHT22;1062;52.538;13.400;2022-07-05T09:45:21;27.70;71.90
2112;DHT22;1062;52.538;13.400;2022-07-05T09:47:48;28.20;71.30
2112;DHT22;1062;52.538;13.400;2022-07-05T09:50:14;28.90;69.30
2112;DHT22;1062;52.538;13.400;2022-07-05T09:52:41;28.20;70.80
2112;DHT22;1062;52.538;13.400;2022-07-05T09:55:12;27.10;72.10
2112;DHT22;1062;52.538;13.400;2022-07-05T09:57:40;27.30;71.50
2112;DHT22;1062;52.538;13.400;2022-07-05T10:00:08;26.90;73.70
2112;DHT22;1062;52.538;13.400;2022-07-05T10:02:44;28.10;71.40
2112;DHT22;1062;52.538;13.400;2022-07-05T10:05:15;28.20;70.50
2112;DHT22;1062;52.538;13.400;2022-07-05T10:07:43;27.60;72.80
2112;DHT22;1062;52.538;13.400;2022-07-05T10:10:21;27.00;73.70
2112;DHT22;1062;52.538;13.400;2022-07-05T10:12:51;26.90;74.90
2112;DHT22;1062;52.538;13.400;2022-07-05T10:15:22;26.90;73.60
2112;DHT22;1062;52.538;13.400;2022-07-05T10:17:56;27.10;74.60
2112;DHT22;1062;52.538;13.400;2022-07-05T10:20:30;26.80;74.90
2112;DHT22;1062;52.538;13.400;2022-07-05T10:22:58;27.40;72.80
2112;DHT22;1062;52.538;13.400;2022-07-05T10:25:27;27.20;72.70
2112;DHT22;1062;52.538;13.400;2022-07-05T10:27:53;26.70;73.20
2112;DHT22;1062;52.538;13.400;2022-07-05T10:30:20;26.90;74.10
2112;DHT22;1062;52.538;13.400;2022-07-05T10:32:48;27.00;72.40
2112;DHT22;1062;52.538;13.400;2022-07-05T10:35:15;26.10;73.50
2112;DHT22;1062;52.538;13.400;2022-07-05T10:37:41;25.70;73.00
2112;DHT22;1062;52.538;13.400;2022-07-05T10:40:07;25.80;74.20
2112;DHT22;1062;52.538;13.400;2022-07-05T10:42:40;26.40;71.40
2112;DHT22;1062;52.538;13.400;2022-07-05T10:45:28;26.40;73.20
2112;DHT22;1062;52.538;13.400;2022-07-05T10:48:14;26.70;72.70
2112;DHT22;1062;52.538;13.400;2022-07-05T10:53:20;26.00;73.80
2112;DHT22;1062;52.538;13.400;2022-07-05T10:56:10;25.80;73.80
2112;DHT22;1062;52.538;13.400;2022-07-05T10:58:46;25.30;76.10
2112;DHT22;1062;52.538;13.400;2022-07-05T11:03:40;25.50;75.40
2112;DHT22;1062;52.538;13.400;2022-07-05T11:06:07;25.20;75.60
2112;DHT22;1062;52.538;13.400;2022-07-05T11:13:54;25.00;77.80
2112;DHT22;1062;52.538;13.400;2022-07-05T11:16:31;24.70;77.40
2112;DHT22;1062;52.538;13.400;2022-07-05T11:19:07;24.60;77.30
2112;DHT22;1062;52.538;13.400;2022-07-05T11:21:35;24.70;77.60
2112;DHT22;1062;52.538;13.400;2022-07-05T11:24:21;24.30;77.80
2112;DHT22;1062;52.538;13.400;2022-07-05T11:26:51;23.80;81.10
2112;DHT22;1062;52.538;13.400;2022-07-05T11:29:45;23.70;79.90
2112;DHT22;1062;52.538;13.400;2022-07-05T11:34:42;24.60;79.70
2112;DHT22;1062;52.538;13.400;2022-07-05T11:39:40;25.80;77.30
2112;DHT22;1062;52.538;13.400;2022-07-05T11:42:08;25.60;75.90
2112;DHT22;1062;52.538;13.400;2022-07-05T11:44:35;25.60;77.60
2112;DHT22;1062;52.538;13.400;2022-07-05T11:47:02;25.70;76.00
2112;DHT22;1062;52.538;13.400;2022-07-05T11:49:28;25.90;77.00
2112;DHT22;1062;52.538;13.400;2022-07-05T11:51:58;25.00;76.90
2112;DHT22;1062;52.538;13.400;2022-07-05T11:54:25;25.70;75.70
2112;DHT22;1062;52.538;13.400;2022-07-05T11:56:51;25.70;75.30
2112;DHT22;1062;52.538;13.400;2022-07-05T11:59:21;25.70;75.20
2112;DHT22;1062;52.538;13.400;2022-07-05T12:01:47;25.70;74.00
2112;DHT22;1062;52.538;13.400;2022-07-05T12:04:24;24.70;74.10
2112;DHT22;1062;52.538;13.400;2022-07-05T12:06:50;24.10;77.20
2112;DHT22;1062;52.538;13.400;2022-07-05T12:09:22;25.10;75.80
2112;DHT22;1062;52.538;13.400;2022-07-05T12:11:52;24.80;74.70
2112;DHT22;1062;52.538;13.400;2022-07-05T12:14:37;25.10;75.20
2112;DHT22;1062;52.538;13.400;2022-07-05T12:17:15;24.60;74.50
2112;DHT22;1062;52.538;13.400;2022-07-05T12:19:41;24.90;76.50
2112;DHT22;1062;52.538;13.400;2022-07-05T12:22:07;25.90;74.50
2112;DHT22;1062;52.538;13.400;2022-07-05T12:24:33;25.90;73.70
2112;DHT22;1062;52.538;13.400;2022-07-05T12:26:59;26.00;72.60
2112;DHT22;1062;52.538;13.400;2022-07-05T12:29:26;25.90;72.40
2112;DHT22;1062;52.538;13.400;2022-07-05T12:31:58;25.50;72.70
2112;DHT22;1062;52.538;13.400;2022-07-05T12:34:24;25.50;71.90
2112;DHT22;1062;52.538;13.400;2022-07-05T12:36:50;24.80;74.20
2112;DHT22;1062;52.538;13.400;2022-07-05T12:39:19;25.30;72.40
2112;DHT22;1062;52.538;13.400;2022-07-05T12:41:44;25.20;72.50
2112;DHT22;1062;52.538;13.400;2022-07-05T12:44:10;25.10;73.20
2112;DHT22;1062;52.538;13.400;2022-07-05T12:49:04;25.10;72.80
2112;DHT22;1062;52.538;13.400;2022-07-05T12:51:40;25.50;71.60
2112;DHT22;1062;52.538;13.400;2022-07-05T12:54:08;25.70;71.50
2112;DHT22;1062;52.538;13.400;2022-07-05T12:57:01;25.80;70.90
2112;DHT22;1062;52.538;13.400;2022-07-05T12:59:58;26.00;71.30
2112;DHT22;1062;52.538;13.400;2022-07-05T13:02:40;25.50;72.80
2112;DHT22;1062;52.538;13.400;2022-07-05T13:05:08;26.10;70.40
2112;DHT22;1062;52.538;13.400;2022-07-05T13:07:41;25.70;71.40
2112;DHT22;1062;52.538;13.400;2022-07-05T13:12:39;26.10;69.30
2112;DHT22;1062;52.538;13.400;2022-07-05T13:15:05;26.30;69.20
2112;DHT22;1062;52.538;13.400;2022-07-05T13:17:31;26.30;67.20
2112;DHT22;1062;52.538;13.400;2022-07-05T13:19:56;25.90;68.50
2112;DHT22;1062;52.538;13.400;2022-07-05T13:22:22;26.40;69.00
2112;DHT22;1062;52.538;13.400;2022-07-05T13:24:48;26.30;67.70
2112;DHT22;1062;52.538;13.400;2022-07-05T13:27:13;26.00;68.30
2112;DHT22;1062;52.538;13.400;2022-07-05T13:29:40;25.90;69.00
2112;DHT22;1062;52.538;13.400;2022-07-05T13:32:06;25.40;69.30
2112;DHT22;1062;52.538;13.400;2022-07-05T13:34:31;25.30;69.70
2112;DHT22;1062;52.538;13.400;2022-07-05T13:36:58;25.30;70.90
2112;DHT22;1062;52.538;13.400;2022-07-05T13:39:24;25.60;69.10
2112;DHT22;1062;52.538;13.400;2022-07-05T13:41:52;25.50;69.90
2112;DHT22;1062;52.538;13.400;2022-07-05T13:44:18;25.80;70.70
2112;DHT22;1062;52.538;13.400;2022-07-05T13:46:44;26.00;69.70
2112;DHT22;1062;52.538;13.400;2022-07-05T13:49:10;25.60;69.10
2112;DHT22;1062;52.538;13.400;2022-07-05T13:51:36;25.80;69.70
2112;DHT22;1062;52.538;13.400;2022-07-05T13:54:01;25.80;68.00
2112;DHT22;1062;52.538;13.400;2022-07-05T13:56:27;25.40;69.50
2112;DHT22;1062;52.538;13.400;2022-07-05T13:58:53;26.10;70.00
2112;DHT22;1062;52.538;13.400;2022-07-05T14:01:19;25.50;68.00
2112;DHT22;1062;52.538;13.400;2022-07-05T14:03:47;25.40;69.50
2112;DHT22;1062;52.538;13.400;2022-07-05T14:06:13;25.20;68.60
2112;DHT22;1062;52.538;13.400;2022-07-05T14:08:38;25.30;71.40
2112;DHT22;1062;52.538;13.400;2022-07-05T14:11:04;25.90;68.50
2112;DHT22;1062;52.538;13.400;2022-07-05T14:13:29;25.70;69.50
2112;DHT22;1062;52.538;13.400;2022-07-05T14:16:02;25.80;69.10
2112;DHT22;1062;52.538;13.400;2022-07-05T14:18:27;25.50;68.90
2112;DHT22;1062;52.538;13.400;2022-07-05T14:20:53;25.80;69.70
2112;DHT22;1062;52.538;13.400;2022-07-05T14:23:19;26.00;68.60
2112;DHT22;1062;52.538;13.400;2022-07-05T14:25:44;26.30;68.70
2112;DHT22;1062;52.538;13.400;2022-07-05T14:28:11;25.50;67.70
2112;DHT22;1062;52.538;13.400;2022-07-05T14:30:39;25.60;70.10
2112;DHT22;1062;52.538;13.400;2022-07-05T14:33:05;25.80;68.00
2112;DHT22;1062;52.538;13.400;2022-07-05T14:35:32;25.20;69.10
2112;DHT22;1062;52.538;13.400;2022-07-05T14:37:58;24.60;70.40
2112;DHT22;1062;52.538;13.400;2022-07-05T14:40:25;24.90;69.50
2112;DHT22;1062;52.538;13.400;2022-07-05T14:42:51;25.30;69.50
2112;DHT22;1062;52.538;13.400;2022-07-05T14:45:17;25.50;68.90
2112;DHT22;1062;52.538;13.400;2022-07-05T14:47:43;25.20;69.60
2112;DHT22;1062;52.538;13.400;2022-07-05T14:50:08;24.90;69.70
2112;DHT22;1062;52.538;13.400;2022-07-05T14:52:34;24.70;70.60
2112;DHT22;1062;52.538;13.400;2022-07-05T14:55:00;24.30;69.40
2112;DHT22;1062;52.538;13.400;2022-07-05T14:57:26;24.60;71.00
2112;DHT22;1062;52.538;13.400;2022-07-05T14:59:52;25.00;69.40
2112;DHT22;1062;52.538;13.400;2022-07-05T15:02:18;25.40;69.20
2112;DHT22;1062;52.538;13.400;2022-07-05T15:04:44;25.10;69.10
2112;DHT22;1062;52.538;13.400;2022-07-05T15:07:09;25.10;69.10
2112;DHT22;1062;52.538;13.400;2022-07-05T15:09:35;25.20;68.90
2112;DHT22;1062;52.538;13.400;2022-07-05T15:12:01;25.20;68.70
2112;DHT22;1062;52.538;13.400;2022-07-05T15:14:27;25.20;69.00
2112;DHT22;1062;52.538;13.400;2022-07-05T15:16:56;25.30;69.20
2112;DHT22;1062;52.538;13.400;2022-07-05T15:19:22;25.40;69.40
2112;DHT22;1062;52.538;13.400;2022-07-05T15:21:49;25.30;68.60
2112;DHT22;1062;52.538;13.400;2022-07-05T15:24:14;25.10;69.80
2112;DHT22;1062;52.538;13.400;2022-07-05T15:26:40;25.10;68.80
2112;DHT22;1062;52.538;13.400;2022-07-05T15:29:08;25.20;68.80
2112;DHT22;1062;52.538;13.400;2022-07-05T15:31:35;25.60;68.10
2112;DHT22;1062;52.538;13.400;2022-07-05T15:34:03;25.30;68.70
2112;DHT22;1062;52.538;13.400;2022-07-05T15:36:29;24.70;70.20
2112;DHT22;1062;52.538;13.400;2022-07-05T15:39:03;25.00;70.40
2112;DHT22;1062;52.538;13.400;2022-07-05T15:41:31;24.90;69.00
2112;DHT22;1062;52.538;13.400;2022-07-05T15:43:58;24.60;68.50
2112;DHT22;1062;52.538;13.400;2022-07-05T15:46:23;24.60;68.90
2112;DHT22;1062;52.538;13.400;2022-07-05T15:48:50;24.80;68.90
2112;DHT22;1062;52.538;13.400;2022-07-05T15:51:18;24.60;67.60
2112;DHT22;1062;52.538;13.400;2022-07-05T15:53:45;24.70;68.70
2112;DHT22;1062;52.538;13.400;2022-07-05T15:56:10;24.40;68.60
2112;DHT22;1062;52.538;13.400;2022-07-05T15:58:37;24.40;68.80
2112;DHT22;1062;52.538;13.400;2022-07-05T16:01:04;24.50;68.20
2112;DHT22;1062;52.538;13.400;2022-07-05T16:03:30;24.60;67.90
2112;DHT22;1062;52.538;13.400;2022-07-05T16:06:00;24.80;67.30
2112;DHT22;1062;52.538;13.400;2022-07-05T16:08:26;24.80;66.70
2112;DHT22;1062;52.538;13.400;2022-07-05T16:10:53;24.60;66.70
2112;DHT22;1062;52.538;13.400;2022-07-05T16:13:19;24.50;67.10